Terminal Aerodrome Forecast
Issued by NWS Miami, FL

Home | Current Version | Previous Version | Text Only | Print | Product List | Glossary On
Versions: 1 2 3 4 5 6 7 8 9 10 11 12 13 14 15 16 17 18 19 20 21 22 23 24 25 26 27 28 29
000
FTUS42 KMFL 040543
TAFAPF
TAF
KAPF 040543Z 0406/0506 VRB03KT 6SM BR SCT015 BKN250
     FM041200 24010G18KT P6SM -SHRA SCT025 BKN050
      TEMPO 0413/0417 P6SM -TSRA SCT020CB BKN050
     FM050000 27011KT P6SM BKN050=

USA.gov is the U.S. government's official web portal to all federal, state and local government web resources and services.